Time;durP1;ratioP1;P1;durP2;ratioP2;P2;SDS_P1;SDS_P2;PMS_P1;PMS_P2;Temp;Humidity;BMP_temperature;BMP_pressure;BME280_temperature;BME280_humidity;BME280_pressure;Samples;Min_cycle;Max_cycle;Signal;HPM_P1;HPM_P2
2021/05/21 08:43:48;;;;;;;1999.90;999.90;;;14.60;99.90;;;;;;5069943;28;20521;-47
2021/05/21 08:46:16;;;;;;;1999.90;999.90;;;15.60;99.90;;;;;;5069929;28;20268;-45
2021/05/21 08:48:44;;;;;;;1999.90;999.90;;;15.50;99.90;;;;;;5069897;28;20264;-49
2021/05/21 08:51:13;;;;;;;1999.90;999.90;;;15.50;99.90;;;;;;5069768;28;20204;-46
2021/05/21 08:53:41;;;;;;;1999.90;999.90;;;15.50;99.90;;;;;;5069832;28;20180;-46
2021/05/21 08:56:10;;;;;;;1999.90;999.90;;;15.60;99.90;;;;;;5069475;28;20169;-45
2021/05/21 08:58:37;;;;;;;1999.90;999.90;;;15.60;99.90;;;;;;5069501;28;20172;-50
2021/05/21 09:01:04;;;;;;;1999.90;999.90;;;15.70;99.90;;;;;;5069550;28;20650;-57
2021/05/21 09:03:33;;;;;;;1999.90;999.90;;;15.70;99.90;;;;;;5069501;28;20176;-50
2021/05/21 09:08:54;;;;;;;1999.90;999.90;;;16.00;99.90;;;;;;5069389;28;20153;-56
2021/05/21 09:11:42;;;;;;;1999.90;999.90;;;16.10;99.90;;;;;;5069366;28;20659;-54
2021/05/21 09:14:21;;;;;;;1999.90;999.90;;;16.00;99.90;;;;;;5067841;28;20160;-50
2021/05/21 09:16:49;;;;;;;1999.90;999.90;;;16.00;99.90;;;;;;5068776;28;20596;-49
2021/05/21 09:19:18;;;;;;;1999.90;999.90;;;16.00;99.90;;;;;;5068969;28;20177;-48
2021/05/21 09:22:04;;;;;;;1999.90;999.90;;;16.00;99.90;;;;;;5068925;28;20173;-46
2021/05/21 09:24:33;;;;;;;1999.90;999.90;;;16.20;99.90;;;;;;5069071;28;20248;-48
2021/05/21 09:27:01;;;;;;;1999.90;999.90;;;16.50;99.90;;;;;;5068977;28;20199;-45
2021/05/21 09:29:48;;;;;;;1999.90;999.90;;;16.30;99.90;;;;;;5069058;28;20168;-45
2021/05/21 09:32:30;;;;;;;1999.90;999.90;;;16.20;99.90;;;;;;5068745;28;20295;-48
2021/05/21 09:35:16;;;;;;;1999.90;999.90;;;16.00;99.90;;;;;;5068708;28;20246;-49
2021/05/21 09:37:48;;;;;;;1999.90;999.90;;;15.70;99.90;;;;;;5068506;28;20176;-47
2021/05/21 09:40:18;;;;;;;1999.90;999.90;;;15.40;99.90;;;;;;5068493;28;20291;-51
2021/05/21 09:42:47;;;;;;;1999.90;999.90;;;15.20;99.90;;;;;;5065551;28;20300;-51
2021/05/21 09:45:38;;;;;;;1999.90;999.90;;;15.00;99.90;;;;;;5055377;28;20254;-50
2021/05/21 09:48:07;;;;;;;1999.90;999.90;;;15.20;99.90;;;;;;5055150;28;20215;-50
2021/05/21 09:50:47;;;;;;;1999.90;999.90;;;15.60;99.90;;;;;;5054855;28;20173;-53
2021/05/21 09:53:21;;;;;;;1999.90;999.90;;;15.70;99.90;;;;;;5054696;28;20204;-52
2021/05/21 09:55:55;;;;;;;1999.90;999.90;;;16.00;99.90;;;;;;5055032;28;20154;-48
2021/05/21 09:58:34;;;;;;;1999.90;999.90;;;16.00;99.90;;;;;;5054871;28;20219;-50
2021/05/21 10:01:07;;;;;;;1999.90;999.90;;;15.90;99.90;;;;;;5054855;28;20298;-48
2021/05/21 10:03:35;;;;;;;1999.90;999.90;;;15.80;99.90;;;;;;5053538;28;20243;-51
2021/05/21 10:06:03;;;;;;;1999.90;999.90;;;15.80;99.90;;;;;;5055039;28;20166;-54
2021/05/21 10:08:31;;;;;;;1999.90;999.90;;;15.90;99.90;;;;;;5053335;28;20565;-48
2021/05/21 10:10:58;;;;;;;1999.90;999.90;;;16.10;99.90;;;;;;5053122;28;20165;-51
2021/05/21 10:13:26;;;;;;;1999.90;999.90;;;16.20;99.90;;;;;;5054405;28;20177;-57
2021/05/21 10:15:53;;;;;;;1999.90;999.90;;;16.10;99.90;;;;;;5036777;28;20165;-50
2021/05/21 10:18:20;;;;;;;1999.90;999.90;;;16.10;99.90;;;;;;5054433;28;20532;-49
2021/05/21 10:20:47;;;;;;;1999.90;999.90;;;16.70;99.90;;;;;;5054668;28;20703;-46
2021/05/21 10:23:19;;;;;;;1999.90;999.90;;;17.00;99.90;;;;;;5054216;28;20219;-50
2021/05/21 10:25:49;;;;;;;1999.90;999.90;;;17.30;99.90;;;;;;5052708;28;20498;-53
2021/05/21 10:47:40;;;;;;;1999.90;999.90;;;17.50;97.40;;;;;;5069579;28;20532;-48
2021/05/21 10:50:09;;;;;;;1999.90;999.90;;;15.10;99.90;;;;;;5069391;28;20160;-51
2021/05/21 10:52:59;;;;;;;1999.90;999.90;;;15.30;99.90;;;;;;5069687;28;20669;-50
2021/05/21 10:55:40;;;;;;;1999.90;999.90;;;15.50;99.90;;;;;;5069703;28;20181;-46
2021/05/21 10:58:07;;;;;;;1999.90;999.90;;;15.60;99.90;;;;;;5069416;28;20637;-47
2021/05/21 11:00:35;;;;;;;1999.90;999.90;;;15.50;99.90;;;;;;5062896;28;20168;-56
2021/05/21 11:03:01;;;;;;;1999.90;999.90;;;15.60;99.90;;;;;;5065535;28;20552;-47
2021/05/21 11:05:36;;;;;;;1999.90;999.90;;;15.70;99.90;;;;;;5065343;28;20983;-59
2021/05/21 11:08:10;;;;;;;1999.90;999.90;;;15.80;99.90;;;;;;5066769;28;20406;-46
2021/05/21 11:10:37;;;;;;;1999.90;999.90;;;16.00;99.90;;;;;;5066281;28;20156;-49
2021/05/21 11:13:15;;;;;;;1999.90;999.90;;;16.00;99.90;;;;;;5072433;28;20692;-49
2021/05/21 11:15:52;;;;;;;1999.90;999.90;;;16.10;99.10;;;;;;5087800;28;20210;-45
2021/05/21 11:18:19;;;;;;;1999.90;999.90;;;16.20;98.00;;;;;;5088607;28;20156;-48
2021/05/21 11:20:53;;;;;;;1999.90;999.90;;;16.20;96.50;;;;;;5080274;28;20564;-50
2021/05/21 11:23:28;;;;;;;1999.90;999.90;;;16.10;97.00;;;;;;5068052;28;20255;-44
2021/05/21 11:26:13;;;;;;;1999.90;999.90;;;16.30;94.90;;;;;;5066972;28;20341;-44
2021/05/21 11:28:44;;;;;;;1999.90;999.90;;;16.20;95.10;;;;;;5065003;28;20228;-47
2021/05/21 11:31:23;;;;;;;1999.90;999.90;;;16.30;95.30;;;;;;5065489;28;20177;-45
2021/05/21 11:33:51;;;;;;;1999.90;999.90;;;16.40;95.20;;;;;;5065737;28;20227;-43
2021/05/21 11:36:23;;;;;;;1999.90;999.90;;;16.70;95.10;;;;;;5067441;28;20627;-46
2021/05/21 11:38:50;;;;;;;1999.90;999.90;;;17.00;93.30;;;;;;5064981;28;20635;-46
2021/05/21 11:41:18;;;;;;;1999.90;999.90;;;17.10;94.80;;;;;;5054415;28;20852;-46
2021/05/21 11:43:47;;;;;;;1999.90;999.90;;;16.90;93.10;;;;;;5054059;28;20200;-55
2021/05/21 11:46:21;;;;;;;1999.90;999.90;;;16.80;93.40;;;;;;5053901;28;20307;-47
2021/05/21 11:48:49;;;;;;;1999.90;999.90;;;16.70;94.00;;;;;;5054041;28;20211;-55
2021/05/21 11:51:26;;;;;;;1999.90;999.90;;;16.80;95.70;;;;;;5054175;28;20192;-53
2021/05/21 11:54:04;;;;;;;1999.90;999.90;;;16.80;94.40;;;;;;5051583;28;20225;-47
2021/05/21 11:56:35;;;;;;;1999.90;999.90;;;16.80;95.80;;;;;;5054011;28;20161;-44
2021/05/21 11:59:04;;;;;;;1999.90;999.90;;;16.80;95.50;;;;;;5053926;28;20232;-45
2021/05/21 12:01:33;;;;;;;1999.90;999.90;;;17.30;95.60;;;;;;5053895;28;20178;-43
2021/05/21 12:04:04;;;;;;;1999.90;999.90;;;18.00;91.50;;;;;;5053710;28;20172;-45
2021/05/21 12:06:32;;;;;;;1999.90;999.90;;;18.20;85.20;;;;;;5053506;28;20176;-44
2021/05/21 12:08:59;;;;;;;1999.90;999.90;;;18.40;85.00;;;;;;5053493;28;20213;-45
2021/05/21 12:11:26;;;;;;;1999.90;999.90;;;18.20;86.30;;;;;;5053679;28;20213;-48
2021/05/21 12:14:01;;;;;;;1999.90;999.90;;;17.90;82.50;;;;;;5053666;28;20173;-49
2021/05/21 12:16:29;;;;;;;1999.90;999.90;;;17.80;84.30;;;;;;5053605;28;20175;-54
2021/05/21 12:18:58;;;;;;;1999.90;999.90;;;17.60;81.70;;;;;;5053489;28;20185;-52
2021/05/21 12:21:29;;;;;;;1999.90;999.90;;;17.40;83.70;;;;;;5053513;28;20231;-48
2021/05/21 12:23:57;;;;;;;1999.90;999.90;;;17.30;84.40;;;;;;5053813;28;20166;-47
2021/05/21 12:26:28;;;;;;;1999.90;999.90;;;17.40;86.60;;;;;;5051903;28;20313;-44
2021/05/21 12:28:57;;;;;;;1999.90;999.90;;;17.50;85.30;;;;;;5050891;28;20205;-47
2021/05/21 12:31:32;;;;;;;1999.90;999.90;;;17.40;86.50;;;;;;5052235;28;20254;-49
2021/05/21 12:34:00;;;;;;;1999.90;999.90;;;17.40;88.00;;;;;;5053224;28;20185;-47
2021/05/21 12:36:30;;;;;;;1999.90;999.90;;;17.30;87.10;;;;;;5053504;28;20165;-44
2021/05/21 12:39:00;;;;;;;1999.90;999.90;;;17.20;87.90;;;;;;5052376;28;20200;-40
2021/05/21 12:41:35;;;;;;;1999.90;999.90;;;17.10;88.60;;;;;;5053748;28;20257;-49
2021/05/21 12:44:14;;;;;;;1999.90;999.90;;;17.10;90.20;;;;;;5053492;28;20173;-50
2021/05/21 12:46:53;;;;;;;1999.90;999.90;;;16.90;87.60;;;;;;5054033;28;20228;-49
2021/05/21 12:49:28;;;;;;;1999.90;999.90;;;16.80;90.90;;;;;;5054343;28;20204;-44
2021/05/21 12:51:57;;;;;;;1999.90;999.90;;;16.70;77.70;;;;;;5053091;28;20210;-44
2021/05/21 12:54:27;;;;;;;1999.90;999.90;;;16.60;82.40;;;;;;5054006;28;20173;-43
2021/05/21 12:57:01;;;;;;;1999.90;999.90;;;16.50;74.00;;;;;;5053999;28;20250;-42
2021/05/21 12:59:44;;;;;;;1999.90;999.90;;;16.50;72.10;;;;;;5053970;28;20658;-47
2021/05/21 13:02:32;;;;;;;1999.90;999.90;;;16.50;69.70;;;;;;5053963;28;20165;-45
2021/05/21 13:05:01;;;;;;;1999.90;999.90;;;16.40;70.90;;;;;;5053967;28;20180;-46
2021/05/21 13:07:29;;;;;;;1999.90;999.90;;;16.40;75.70;;;;;;5053787;28;20756;-49
2021/05/21 13:10:04;;;;;;;1999.90;999.90;;;16.50;76.20;;;;;;5053949;28;20185;-48
2021/05/21 13:12:39;;;;;;;1999.90;999.90;;;16.60;80.00;;;;;;5054015;28;20157;-49
2021/05/21 13:15:14;;;;;;;1999.90;999.90;;;16.80;75.90;;;;;;5053803;28;20244;-46
2021/05/21 13:17:43;;;;;;;1999.90;999.90;;;17.00;80.10;;;;;;5052514;28;20172;-43
2021/05/21 13:20:15;;;;;;;1999.90;999.90;;;17.00;77.10;;;;;;5053764;28;20230;-46
2021/05/21 13:22:43;;;;;;;1999.90;999.90;;;17.00;72.90;;;;;;5053783;28;20272;-43
2021/05/21 13:25:10;;;;;;;1999.90;999.90;;;16.70;74.10;;;;;;5053687;28;20166;-49
2021/05/21 13:27:38;;;;;;;1999.90;999.90;;;16.50;77.70;;;;;;5053237;28;20219;-44
2021/05/21 13:30:09;;;;;;;1999.90;999.90;;;16.40;82.10;;;;;;5053426;28;20720;-52
2021/05/21 13:32:36;;;;;;;1999.90;999.90;;;16.30;81.00;;;;;;5053436;28;20166;-50
2021/05/21 13:35:04;;;;;;;1999.90;999.90;;;16.20;82.10;;;;;;5053321;28;20161;-47
2021/05/21 13:37:31;;;;;;;1999.90;999.90;;;16.20;82.50;;;;;;5053201;28;20260;-45
2021/05/21 13:39:58;;;;;;;1999.90;999.90;;;16.20;82.10;;;;;;5053285;28;20165;-50
2021/05/21 13:42:25;;;;;;;1999.90;999.90;;;16.30;82.70;;;;;;5053126;28;20200;-50
2021/05/21 13:44:52;;;;;;;1999.90;999.90;;;16.40;83.70;;;;;;5052158;28;20169;-43
2021/05/21 13:47:19;;;;;;;1999.90;999.90;;;16.60;82.20;;;;;;5052898;28;20332;-49
2021/05/21 13:49:46;;;;;;;1999.90;999.90;;;16.60;79.20;;;;;;5053162;28;20642;-44
2021/05/21 13:52:13;;;;;;;1999.90;999.90;;;16.70;77.20;;;;;;5053289;28;20169;-46
2021/05/21 13:54:40;;;;;;;1999.90;999.90;;;16.70;78.00;;;;;;5053237;28;20650;-47
2021/05/21 13:57:07;;;;;;;1999.90;999.90;;;16.60;75.90;;;;;;5053048;28;20173;-46
2021/05/21 13:59:34;;;;;;;1999.90;999.90;;;16.50;77.80;;;;;;5051963;28;20169;-42
2021/05/21 14:02:01;;;;;;;1999.90;999.90;;;16.40;78.00;;;;;;5052845;28;20527;-46
2021/05/21 14:04:28;;;;;;;1999.90;999.90;;;16.50;80.40;;;;;;5053005;28;20204;-46
2021/05/21 14:06:55;;;;;;;1999.90;999.90;;;16.50;80.40;;;;;;5053062;28;20219;-47
2021/05/21 14:09:22;;;;;;;1999.90;999.90;;;16.30;83.60;;;;;;5052878;28;20291;-47
2021/05/21 14:11:49;;;;;;;1999.90;999.90;;;16.20;86.00;;;;;;5052850;28;20173;-47
2021/05/21 14:14:15;;;;;;;1999.90;999.90;;;16.10;86.60;;;;;;5053082;28;20611;-51
2021/05/21 14:16:43;;;;;;;1999.90;999.90;;;15.90;88.30;;;;;;5052927;28;20177;-45
2021/05/21 14:19:12;;;;;;;1999.90;999.90;;;15.80;89.80;;;;;;5052803;28;20211;-46
2021/05/21 14:21:39;;;;;;;1999.90;999.90;;;15.70;90.10;;;;;;5052995;28;20185;-48
2021/05/21 14:24:07;;;;;;;1999.90;999.90;;;15.70;90.00;;;;;;5052719;28;20199;-46
2021/05/21 14:26:35;;;;;;;1999.90;999.90;;;15.70;88.60;;;;;;5052738;28;20181;-43
2021/05/21 14:29:09;;;;;;;1999.90;999.90;;;15.60;86.30;;;;;;5052596;28;20282;-46
2021/05/21 14:31:45;;;;;;;1999.90;999.90;;;15.60;90.20;;;;;;5052727;28;20643;-45
2021/05/21 14:34:23;;;;;;;1999.90;999.90;;;15.50;89.20;;;;;;5052463;28;20171;-48
2021/05/21 14:36:51;;;;;;;1999.90;999.90;;;15.40;91.50;;;;;;5052497;28;20607;-42
2021/05/21 14:39:19;;;;;;;1999.90;999.90;;;15.40;91.50;;;;;;5052620;28;20176;-46
2021/05/21 14:41:46;;;;;;;1999.90;999.90;;;15.40;90.90;;;;;;5052819;28;20203;-44
2021/05/21 14:44:15;;;;;;;1999.90;999.90;;;15.40;91.30;;;;;;5052610;28;20697;-46
2021/05/21 14:46:42;;;;;;;1999.90;999.90;;;15.30;91.70;;;;;;5052303;28;20216;-42
2021/05/21 14:49:10;;;;;;;1999.90;999.90;;;15.30;91.40;;;;;;5052452;28;20245;-50
2021/05/21 14:51:37;;;;;;;1999.90;999.90;;;15.20;90.50;;;;;;5052462;28;20177;-46
2021/05/21 14:54:06;;;;;;;1999.90;999.90;;;15.20;91.20;;;;;;5052377;28;20627;-44
2021/05/21 14:56:33;;;;;;;1999.90;999.90;;;15.20;92.20;;;;;;5052497;28;20177;-44
2021/05/21 14:59:00;;;;;;;1999.90;999.90;;;15.20;92.80;;;;;;5052435;28;20173;-47
2021/05/21 15:01:27;;;;;;;1999.90;999.90;;;15.20;92.20;;;;;;5052318;28;20165;-44
2021/05/21 15:03:55;;;;;;;1999.90;999.90;;;15.30;91.30;;;;;;5052331;28;20222;-45
2021/05/21 15:06:26;;;;;;;1999.90;999.90;;;15.20;91.10;;;;;;5052233;28;20571;-44
2021/05/21 15:08:59;;;;;;;1999.90;999.90;;;15.10;92.50;;;;;;5051999;28;20209;-47
2021/05/21 15:11:30;;;;;;;1999.90;999.90;;;15.00;92.10;;;;;;5051816;28;20184;-46
2021/05/21 15:14:00;;;;;;;1999.90;999.90;;;14.90;90.80;;;;;;5051972;28;20169;-45
2021/05/21 15:16:48;;;;;;;1999.90;999.90;;;14.80;91.90;;;;;;5038510;28;20605;-45
2021/05/21 15:24:39;;;;;;;1999.90;999.90;;;14.50;93.00;;;;;;5055806;28;20534;-47
2021/05/21 15:27:07;;;;;;;1999.90;999.90;;;14.40;93.40;;;;;;5055852;28;20536;-45
2021/05/21 15:29:33;;;;;;;1999.90;999.90;;;14.30;93.80;;;;;;5055723;28;20625;-45
2021/05/21 15:32:02;;;;;;;1999.90;999.90;;;14.20;94.00;;;;;;5055615;28;20256;-48
2021/05/21 15:34:29;;;;;;;1999.90;999.90;;;14.20;94.90;;;;;;5055934;28;20169;-46
2021/05/21 15:36:56;;;;;;;1999.90;999.90;;;14.10;96.20;;;;;;5054863;28;20165;-45
2021/05/21 15:39:25;;;;;;;1999.90;999.90;;;14.00;96.80;;;;;;5055420;28;20168;-43
2021/05/21 15:47:13;;;;;;;1999.90;999.90;;;13.70;97.90;;;;;;5055227;28;20243;-47
2021/05/21 15:49:44;;;;;;;1999.90;999.90;;;13.70;98.40;;;;;;5055421;28;20177;-47
2021/05/21 15:52:19;;;;;;;1999.90;999.90;;;13.60;97.70;;;;;;5055494;28;20673;-42
2021/05/21 15:55:42;;;;;;;1999.90;999.90;;;13.60;97.30;;;;;;5055306;28;20176;-46
2021/05/21 15:58:24;;;;;;;1999.90;999.90;;;13.50;97.80;;;;;;5051928;28;20177;-48
2021/05/21 16:00:26;;;;;;;1999.90;999.90;;;13.40;98.60;;;;;;5051811;28;20181;-43
2021/05/21 16:02:53;;;;;;;1999.90;999.90;;;13.30;99.10;;;;;;5055305;28;20201;-48
2021/05/21 16:05:20;;;;;;;1999.90;999.90;;;13.20;99.00;;;;;;5055135;28;20165;-47
2021/05/21 16:07:47;;;;;;;1999.90;999.90;;;13.20;99.90;;;;;;5055078;28;20193;-48
2021/05/21 16:10:15;;;;;;;1999.90;999.90;;;13.10;99.90;;;;;;5055199;28;20311;-47
2021/05/21 16:12:45;;;;;;;1999.90;999.90;;;13.10;99.90;;;;;;5055024;28;20627;-47
2021/05/21 16:15:13;;;;;;;1999.90;999.90;;;13.00;99.90;;;;;;5055039;28;20223;-45
2021/05/21 16:17:40;;;;;;;1999.90;999.90;;;12.90;99.90;;;;;;5054911;28;20362;-43
2021/05/21 16:20:07;;;;;;;1999.90;999.90;;;12.90;99.90;;;;;;5054906;28;20615;-47
2021/05/21 16:22:36;;;;;;;1999.90;999.90;;;12.90;99.90;;;;;;5054729;28;20581;-45
2021/05/21 16:25:09;;;;;;;1999.90;999.90;;;12.80;99.90;;;;;;5054712;28;20162;-47
2021/05/21 16:27:36;;;;;;;1999.90;999.90;;;12.70;99.90;;;;;;5054689;28;20208;-50
2021/05/21 16:30:06;;;;;;;1999.90;999.90;;;12.60;99.90;;;;;;5055104;28;20533;-47
2021/05/21 16:32:33;;;;;;;1999.90;999.90;;;12.50;99.90;;;;;;5054972;28;20169;-46
2021/05/21 16:35:00;;;;;;;1999.90;999.90;;;12.50;99.90;;;;;;5054645;28;20161;-42
2021/05/21 16:37:27;;;;;;;1999.90;999.90;;;12.50;99.90;;;;;;5054766;28;20162;-44
2021/05/21 16:39:54;;;;;;;1999.90;999.90;;;12.50;99.90;;;;;;5054684;28;20283;-47
2021/05/21 16:42:21;;;;;;;1999.90;999.90;;;12.50;99.90;;;;;;5054244;28;20648;-45
2021/05/21 16:44:47;;;;;;;1999.90;999.90;;;12.30;99.90;;;;;;5054343;28;20239;-43
2021/05/21 16:47:15;;;;;;;1999.90;999.90;;;12.30;99.90;;;;;;5054053;28;20225;-43
2021/05/21 16:49:42;;;;;;;1999.90;999.90;;;12.30;99.90;;;;;;5054350;28;20184;-45
2021/05/21 16:52:11;;;;;;;1999.90;999.90;;;12.20;99.90;;;;;;5054324;28;20526;-47
2021/05/21 16:54:38;;;;;;;1999.90;999.90;;;12.20;99.90;;;;;;5054435;28;20177;-52
2021/05/21 16:57:05;;;;;;;1999.90;999.90;;;12.20;99.90;;;;;;5054157;28;20219;-47
2021/05/21 16:59:32;;;;;;;1999.90;999.90;;;12.20;99.90;;;;;;5054147;28;20165;-49
2021/05/21 17:01:59;;;;;;;1999.90;999.90;;;12.20;99.90;;;;;;5054275;28;20253;-43
2021/05/21 17:04:26;;;;;;;1999.90;999.90;;;12.20;99.90;;;;;;5054136;28;20169;-49
2021/05/21 17:06:53;;;;;;;1999.90;999.90;;;12.10;99.90;;;;;;5053973;28;20213;-49
2021/05/21 17:09:23;;;;;;;1999.90;999.90;;;12.10;99.90;;;;;;5053901;28;20193;-48
2021/05/21 17:11:53;;;;;;;1999.90;999.90;;;12.10;99.90;;;;;;5054223;28;20252;-52
2021/05/21 17:14:25;;;;;;;1999.90;999.90;;;12.00;99.90;;;;;;5053758;28;20197;-42
2021/05/21 17:19:55;;;;;;;1999.90;999.90;;;11.90;99.90;;;;;;5053627;28;20161;-47
2021/05/21 17:44:30;;;;;;;1999.90;999.90;;;11.70;99.90;;;;;;5053057;28;20230;-47
2021/05/21 17:47:03;;;;;;;1999.90;999.90;;;11.60;99.90;;;;;;5052842;28;20228;-47
2021/05/21 17:54:39;;;;;;;1999.90;999.90;;;11.70;99.90;;;;;;5053313;28;20513;-48
2021/05/21 18:00:27;;;;;;;1999.90;999.90;;;11.60;99.90;;;;;;5031053;28;20205;-49
2021/05/21 18:03:09;;;;;;;1999.90;999.90;;;11.60;99.90;;;;;;5050980;28;20185;-44
2021/05/21 18:11:11;;;;;;;1999.90;999.90;;;11.40;99.90;;;;;;5052849;28;20167;-53
2021/05/21 18:46:04;;;;;;;1999.90;999.90;;;11.30;99.90;;;;;;5051243;28;20217;-47
2021/05/21 18:48:48;;;;;;;1999.90;999.90;;;11.20;99.90;;;;;;5052540;28;20215;-44
2021/05/21 18:54:12;;;;;;;1999.90;999.90;;;11.20;99.90;;;;;;5056661;28;20188;-45
2021/05/21 19:02:19;;;;;;;1999.90;999.90;;;11.20;99.90;;;;;;5056530;28;20177;-44
2021/05/21 19:04:53;;;;;;;1999.90;999.90;;;11.30;99.90;;;;;;5056360;28;20185;-42
2021/05/21 19:09:56;;;;;;;1999.90;999.90;;;11.30;99.90;;;;;;5056302;28;20169;-48
2021/05/21 19:12:34;;;;;;;1999.90;999.90;;;11.40;99.90;;;;;;5056200;28;20162;-45
2021/05/21 19:15:24;;;;;;;1999.90;999.90;;;11.40;99.90;;;;;;5056177;28;20185;-46
2021/05/21 19:17:54;;;;;;;1999.90;999.90;;;11.40;99.90;;;;;;5056194;28;20297;-45
2021/05/21 19:20:25;;;;;;;1999.90;999.90;;;11.40;99.90;;;;;;5056142;28;20266;-43
2021/05/21 19:23:05;;;;;;;1999.90;999.90;;;11.50;99.90;;;;;;5056034;28;20173;-42
2021/05/21 19:25:33;;;;;;;1999.90;999.90;;;11.60;99.90;;;;;;5055877;28;20650;-48
2021/05/21 19:28:08;;;;;;;1999.90;999.90;;;11.50;99.90;;;;;;5054565;28;20201;-46
2021/05/21 19:44:17;;;;;;;1999.90;999.90;;;11.50;99.90;;;;;;5055584;28;20635;-46
2021/05/21 19:54:31;;;;;;;1999.90;999.90;;;11.60;99.90;;;;;;5055718;28;20438;-45
2021/05/21 20:13:27;;;;;;;1999.90;999.90;;;11.50;99.90;;;;;;5054935;28;20615;-43
2021/05/21 20:16:00;;;;;;;1999.90;999.90;;;11.40;99.90;;;;;;5055102;28;20536;-44
2021/05/21 20:18:28;;;;;;;1999.90;999.90;;;11.40;99.90;;;;;;5054938;28;20191;-46
2021/05/21 20:20:56;;;;;;;1999.90;999.90;;;11.50;99.90;;;;;;5055053;28;20173;-42
2021/05/21 20:23:23;;;;;;;1999.90;999.90;;;11.40;99.90;;;;;;5054845;28;20173;-41
2021/05/21 20:26:01;;;;;;;1999.90;999.90;;;11.30;99.90;;;;;;5054865;28;20181;-45
2021/05/21 20:28:36;;;;;;;1999.90;999.90;;;11.30;99.90;;;;;;5054619;28;20617;-44
2021/05/21 20:39:13;;;;;;;1999.90;999.90;;;11.20;99.90;;;;;;5054938;28;20280;-41
2021/05/21 21:01:02;;;;;;;1999.90;999.90;;;10.80;99.90;;;;;;5034427;28;20165;-43
2021/05/21 21:03:45;;;;;;;1999.90;999.90;;;10.70;99.90;;;;;;5034203;28;20620;-41
2021/05/21 21:08:55;;;;;;;1999.90;999.90;;;10.70;99.90;;;;;;5033975;28;20236;-44
2021/05/21 21:11:35;;;;;;;1999.90;999.90;;;10.80;99.90;;;;;;5033706;28;20173;-41
2021/05/21 21:14:17;;;;;;;1999.90;999.90;;;10.80;99.90;;;;;;5033646;28;20240;-42
2021/05/21 21:16:55;;;;;;;1999.90;999.90;;;10.80;99.90;;;;;;5033824;28;20252;-44
2021/05/21 21:19:46;;;;;;;1999.90;999.90;;;10.80;99.90;;;;;;5034109;28;20174;-41
2021/05/21 21:22:31;;;;;;;1999.90;999.90;;;10.80;99.90;;;;;;5033748;28;20202;-41
2021/05/21 21:26:24;;;;;;;1999.90;999.90;;;10.80;99.90;;;;;;5033766;28;20245;-44
2021/05/21 21:48:40;;;;;;;1999.90;999.90;;;10.60;99.90;;;;;;5053284;28;20204;-45
2021/05/21 22:04:30;;;;;;;1999.90;999.90;;;10.70;99.90;;;;;;5053213;28;20161;-44
2021/05/21 22:09:51;;;;;;;1999.90;999.90;;;10.70;99.90;;;;;;5052933;28;20207;-43
2021/05/21 22:12:42;;;;;;;1999.90;999.90;;;10.70;99.90;;;;;;5052915;28;20165;-46
2021/05/21 22:15:26;;;;;;;1999.90;999.90;;;10.60;99.90;;;;;;5052837;28;20273;-42
2021/05/21 22:21:05;;;;;;;1999.90;999.90;;;10.60;99.90;;;;;;5052890;28;20204;-44
2021/05/21 22:26:05;;;;;;;1999.90;999.90;;;10.50;99.90;;;;;;5052867;28;20240;-42
2021/05/21 22:28:32;;;;;;;1999.90;999.90;;;10.50;99.90;;;;;;5052670;28;20200;-42
2021/05/21 22:30:59;;;;;;;1999.90;999.90;;;10.50;99.90;;;;;;5052809;28;20252;-49
2021/05/21 22:33:25;;;;;;;1999.90;999.90;;;10.50;99.90;;;;;;5052954;28;20252;-43
2021/05/21 22:35:52;;;;;;;1999.90;999.90;;;10.60;99.90;;;;;;5053018;28;20172;-45
2021/05/21 22:38:19;;;;;;;1999.90;999.90;;;10.60;99.90;;;;;;5052706;28;20573;-46
2021/05/21 22:40:46;;;;;;;1999.90;999.90;;;10.50;99.90;;;;;;5052646;28;20589;-44
2021/05/21 22:43:13;;;;;;;1999.90;999.90;;;10.60;99.90;;;;;;5052726;28;20651;-42
2021/05/21 22:45:41;;;;;;;1999.90;999.90;;;10.60;99.90;;;;;;5052391;28;20205;-45
2021/05/21 22:48:09;;;;;;;1999.90;999.90;;;10.60;99.90;;;;;;5052482;28;20291;-46
2021/05/21 22:50:35;;;;;;;1999.90;999.90;;;10.50;99.90;;;;;;5052638;28;20169;-41
2021/05/21 22:53:03;;;;;;;1999.90;999.90;;;10.50;99.90;;;;;;5052497;28;20216;-46
2021/05/21 22:55:31;;;;;;;1999.90;999.90;;;10.50;99.90;;;;;;5052548;28;20218;-41
2021/05/21 22:57:58;;;;;;;1999.90;999.90;;;10.40;99.90;;;;;;5052664;28;20173;-44
2021/05/21 23:00:25;;;;;;;1999.90;999.90;;;10.40;99.90;;;;;;5052551;28;20185;-41
2021/05/21 23:02:52;;;;;;;1999.90;999.90;;;10.40;99.90;;;;;;5052555;28;20165;-48
2021/05/21 23:05:19;;;;;;;1999.90;999.90;;;10.40;99.90;;;;;;5052486;28;20528;-42
2021/05/21 23:07:46;;;;;;;1999.90;999.90;;;10.30;99.90;;;;;;5052384;28;20185;-44
2021/05/21 23:10:13;;;;;;;1999.90;999.90;;;10.30;99.90;;;;;;5052381;28;20170;-44
2021/05/21 23:12:40;;;;;;;1999.90;999.90;;;10.40;99.90;;;;;;5052379;28;20249;-46
2021/05/21 23:15:07;;;;;;;1999.90;999.90;;;10.40;99.90;;;;;;5052373;28;20264;-46
2021/05/21 23:17:34;;;;;;;1999.90;999.90;;;10.30;99.90;;;;;;5052368;28;20164;-46
2021/05/21 23:20:01;;;;;;;1999.90;999.90;;;10.20;99.90;;;;;;5052506;28;20256;-43
2021/05/21 23:22:27;;;;;;;1999.90;999.90;;;10.30;99.90;;;;;;5052361;28;20173;-44
2021/05/21 23:24:54;;;;;;;1999.90;999.90;;;10.20;99.90;;;;;;5052307;28;20173;-43
2021/05/21 23:27:21;;;;;;;1999.90;999.90;;;10.10;99.90;;;;;;5052336;28;20168;-46
2021/05/21 23:29:48;;;;;;;1999.90;999.90;;;10.10;99.90;;;;;;5052146;28;20201;-41
2021/05/21 23:32:15;;;;;;;1999.90;999.90;;;10.00;99.90;;;;;;5052235;28;20176;-41
2021/05/21 23:34:42;;;;;;;1999.90;999.90;;;10.00;99.90;;;;;;5052233;28;20619;-42
2021/05/21 23:37:08;;;;;;;1999.90;999.90;;;10.00;99.90;;;;;;5055557;28;20161;-45
2021/05/21 23:39:35;;;;;;;1999.90;999.90;;;10.00;99.90;;;;;;5055693;28;20244;-40
2021/05/21 23:42:02;;;;;;;1999.90;999.90;;;9.90;99.90;;;;;;5055817;28;20172;-43
2021/05/21 23:44:29;;;;;;;1999.90;999.90;;;9.90;99.90;;;;;;5055852;28;20252;-45
2021/05/21 23:46:56;;;;;;;1999.90;999.90;;;9.80;99.90;;;;;;5055495;28;20221;-44
2021/05/21 23:49:22;;;;;;;1999.90;999.90;;;9.70;99.90;;;;;;5055555;28;20232;-40
2021/05/21 23:51:49;;;;;;;1999.90;999.90;;;9.80;99.90;;;;;;5055569;28;20232;-44
2021/05/21 23:54:16;;;;;;;1999.90;999.90;;;9.70;99.90;;;;;;5055529;28;20654;-43
2021/05/21 23:56:43;;;;;;;1999.90;999.90;;;9.70;99.90;;;;;;5055543;28;20261;-45
2021/05/21 23:59:12;;;;;;;1999.90;999.90;;;9.70;99.90;;;;;;5055438;28;20165;-43
